Time;durP1;ratioP1;P1;durP2;ratioP2;P2;SDS_P1;SDS_P2;PMS_P1;PMS_P2;Temp;Humidity;BMP_temperature;BMP_pressure;BME280_temperature;BME280_humidity;BME280_pressure;Samples;Min_cycle;Max_cycle;Signal;HPM_P1;HPM_P2
2022/12/08 00:00:45;;;;;;;8.23;4.85;;;5.50;90.90;;;;;;5114982;28;20083;-77
2022/12/08 00:03:11;;;;;;;11.45;5.10;;;5.50;90.90;;;;;;5114827;28;20020;-77
2022/12/08 00:11:10;;;;;;;13.38;6.35;;;5.50;91.50;;;;;;5113990;28;20153;-77
2022/12/08 00:13:36;;;;;;;13.18;6.20;;;5.40;91.20;;;;;;5113852;28;20048;-76
2022/12/08 00:16:01;;;;;;;11.68;7.13;;;5.40;91.40;;;;;;5114565;28;20102;-76
2022/12/08 00:18:27;;;;;;;10.32;6.30;;;5.50;91.20;;;;;;5113496;28;20032;-77
2022/12/08 00:20:56;;;;;;;15.25;7.72;;;5.50;91.20;;;;;;5114627;28;20035;-76
2022/12/08 00:23:22;;;;;;;13.90;7.30;;;5.50;91.30;;;;;;5113415;28;20020;-77
2022/12/08 00:25:48;;;;;;;18.77;7.55;;;5.50;91.20;;;;;;5113467;28;20374;-77
2022/12/08 00:28:13;;;;;;;18.05;7.85;;;5.50;91.30;;;;;;5114400;28;20044;-76
2022/12/08 00:30:41;;;;;;;15.27;7.88;;;5.50;91.40;;;;;;5114327;28;20028;-77
2022/12/08 00:33:06;;;;;;;14.45;8.13;;;5.50;91.30;;;;;;5113254;28;20028;-76
2022/12/08 00:35:32;;;;;;;15.07;8.52;;;5.50;91.30;;;;;;5114366;28;20024;-77
2022/12/08 00:37:57;;;;;;;15.20;8.27;;;5.50;91.40;;;;;;5113166;28;20020;-77
2022/12/08 00:40:23;;;;;;;19.20;9.38;;;5.50;91.30;;;;;;5113343;28;20474;-76
2022/12/08 00:42:49;;;;;;;17.25;8.77;;;5.50;91.30;;;;;;5112918;28;20048;-77
2022/12/08 00:45:14;;;;;;;12.10;7.70;;;5.50;91.30;;;;;;5113045;28;20032;-77
2022/12/08 00:47:40;;;;;;;18.85;9.85;;;5.50;91.40;;;;;;5114025;28;20028;-77
2022/12/08 00:50:06;;;;;;;19.20;9.95;;;5.40;91.50;;;;;;5113054;28;20035;-77
2022/12/08 00:52:32;;;;;;;16.50;8.60;;;5.40;91.50;;;;;;5112933;28;20046;-77
2022/12/08 00:54:57;;;;;;;18.98;9.52;;;5.40;91.60;;;;;;5113043;28;20049;-77
2022/12/08 00:57:23;;;;;;;18.77;8.80;;;5.50;91.50;;;;;;5112865;28;20043;-77
2022/12/08 00:59:49;;;;;;;17.45;8.75;;;5.40;91.60;;;;;;5096020;28;20046;-77
2022/12/08 01:02:14;;;;;;;17.40;8.70;;;5.40;91.50;;;;;;5112796;28;20058;-76
2022/12/08 01:04:40;;;;;;;18.42;9.63;;;5.40;91.60;;;;;;5112847;28;20024;-77
2022/12/08 01:07:07;;;;;;;20.35;9.82;;;5.50;91.50;;;;;;5112868;28;20054;-77
2022/12/08 01:09:32;;;;;;;20.33;9.65;;;5.50;91.50;;;;;;5113659;28;20058;-77
2022/12/08 01:11:58;;;;;;;19.13;10.38;;;5.50;91.60;;;;;;5113682;28;20467;-77
2022/12/08 01:14:24;;;;;;;20.65;10.30;;;5.50;91.60;;;;;;5112616;28;20119;-77
2022/12/08 01:16:49;;;;;;;16.08;9.57;;;5.50;91.60;;;;;;5112502;28;20096;-77
2022/12/08 01:19:16;;;;;;;17.27;9.25;;;5.50;91.60;;;;;;5112586;28;20032;-76
2022/12/08 01:21:42;;;;;;;17.52;9.50;;;5.60;91.60;;;;;;5113596;28;20036;-77
2022/12/08 01:24:20;;;;;;;18.15;9.20;;;5.50;91.60;;;;;;5113676;28;20035;-77
2022/12/08 01:26:46;;;;;;;19.70;9.30;;;5.50;91.60;;;;;;5113962;28;20031;-77
2022/12/08 01:29:12;;;;;;;17.55;8.98;;;5.60;91.60;;;;;;5119987;28;20036;-77
2022/12/08 01:31:39;;;;;;;16.58;8.88;;;5.50;91.60;;;;;;5119242;28;20028;-77
2022/12/08 01:34:05;;;;;;;16.33;9.02;;;5.60;91.60;;;;;;5120205;28;20032;-77
2022/12/08 01:36:36;;;;;;;16.67;9.38;;;5.60;91.60;;;;;;5119286;28;20044;-76
2022/12/08 01:39:05;;;;;;;19.00;9.48;;;5.60;91.60;;;;;;5120135;28;20025;-76
2022/12/08 01:41:32;;;;;;;15.60;8.32;;;5.60;91.50;;;;;;5120196;28;20027;-77
2022/12/08 01:44:09;;;;;;;21.17;9.68;;;5.60;91.60;;;;;;5120012;28;20044;-76
2022/12/08 01:46:48;;;;;;;13.48;8.35;;;5.60;91.60;;;;;;5120108;28;20035;-76
2022/12/08 01:49:33;;;;;;;18.75;9.30;;;5.60;91.50;;;;;;5119157;28;20023;-76
2022/12/08 01:52:12;;;;;;;16.85;8.55;;;5.60;91.50;;;;;;5120065;28;20020;-76
2022/12/08 01:54:59;;;;;;;16.63;8.10;;;5.60;91.50;;;;;;5120100;28;20024;-76
2022/12/08 01:57:29;;;;;;;15.82;7.78;;;5.50;91.70;;;;;;5120129;28;20153;-77
2022/12/08 02:00:08;;;;;;;16.33;8.70;;;5.50;91.80;;;;;;5120125;28;20386;-77
2022/12/08 02:02:53;;;;;;;17.67;7.95;;;5.50;91.80;;;;;;5118997;28;20016;-77
2022/12/08 02:05:30;;;;;;;18.90;8.57;;;5.50;91.90;;;;;;5119985;28;20043;-77
2022/12/08 02:07:57;;;;;;;15.55;7.43;;;5.50;91.80;;;;;;5118922;28;20024;-77
2022/12/08 02:10:26;;;;;;;14.52;7.82;;;5.50;91.80;;;;;;5118879;28;20028;-76
2022/12/08 02:12:53;;;;;;;17.23;7.55;;;5.50;91.90;;;;;;5119146;28;20053;-76
2022/12/08 02:15:25;;;;;;;15.13;8.27;;;5.40;91.90;;;;;;5119837;28;20028;-76
2022/12/08 02:18:36;;;;;;;16.27;7.35;;;5.50;92.00;;;;;;5118748;28;20024;-77
2022/12/08 02:21:20;;;;;;;14.75;7.55;;;5.50;91.90;;;;;;5088487;28;20029;-77
2022/12/08 02:23:58;;;;;;;15.80;8.00;;;5.40;91.90;;;;;;5118780;28;20057;-77
2022/12/08 02:27:01;;;;;;;17.50;7.70;;;5.50;92.00;;;;;;5119831;28;20050;-77
2022/12/08 02:29:53;;;;;;;14.73;7.68;;;5.40;91.90;;;;;;5118745;28;20035;-77
2022/12/08 02:32:22;;;;;;;14.27;7.80;;;5.50;91.90;;;;;;5118773;28;20047;-77
2022/12/08 02:35:08;;;;;;;14.23;7.68;;;5.50;91.80;;;;;;5118708;28;20024;-76
2022/12/08 02:37:42;;;;;;;12.93;7.00;;;5.50;91.80;;;;;;5119657;28;20036;-76
2022/12/08 02:40:27;;;;;;;13.32;7.47;;;5.50;91.80;;;;;;5115940;28;20020;-76
2022/12/08 02:42:59;;;;;;;11.13;6.65;;;5.50;91.80;;;;;;5116333;28;20046;-76
2022/12/08 02:45:30;;;;;;;15.45;7.05;;;5.50;91.80;;;;;;5116425;28;20024;-77
2022/12/08 02:47:58;;;;;;;13.93;6.90;;;5.40;91.80;;;;;;5115372;28;20096;-77
2022/12/08 02:50:23;;;;;;;13.57;7.32;;;5.40;91.80;;;;;;5116272;28;20074;-76
2022/12/08 02:52:49;;;;;;;13.30;6.57;;;5.40;91.80;;;;;;5115352;28;20029;-76
2022/12/08 02:55:25;;;;;;;12.63;7.03;;;5.40;91.80;;;;;;5116164;28;20058;-76
2022/12/08 02:58:13;;;;;;;15.05;7.38;;;5.40;91.90;;;;;;5116272;28;20051;-76
2022/12/08 03:01:01;;;;;;;14.27;6.80;;;5.40;91.90;;;;;;5115046;28;20024;-77
2022/12/08 03:03:52;;;;;;;12.07;6.88;;;5.40;91.80;;;;;;5116211;28;20020;-77
2022/12/08 03:06:29;;;;;;;13.88;6.53;;;5.40;91.80;;;;;;5114985;28;20081;-77
2022/12/08 03:08:59;;;;;;;12.30;6.88;;;5.40;91.80;;;;;;5114829;28;20024;-76
2022/12/08 03:12:02;;;;;;;13.35;7.22;;;5.50;91.80;;;;;;5115855;28;20092;-77
2022/12/08 03:14:30;;;;;;;13.45;6.63;;;5.40;91.80;;;;;;5111730;28;20070;-76
2022/12/08 03:16:58;;;;;;;14.27;6.43;;;5.40;91.80;;;;;;5114856;28;20039;-77
2022/12/08 03:19:28;;;;;;;15.77;7.50;;;5.40;91.80;;;;;;5115719;28;20099;-77
2022/12/08 03:22:01;;;;;;;13.40;6.63;;;5.40;92.20;;;;;;5115713;28;20028;-76
2022/12/08 03:24:30;;;;;;;15.32;7.50;;;5.40;91.80;;;;;;5114679;28;20046;-76
2022/12/08 03:27:30;;;;;;;12.63;6.43;;;5.50;91.80;;;;;;5114554;28;20028;-76
2022/12/08 03:29:58;;;;;;;11.27;6.50;;;5.50;91.80;;;;;;5097927;28;20036;-76
2022/12/08 03:32:49;;;;;;;11.65;5.95;;;5.50;91.80;;;;;;5097539;28;20020;-77
2022/12/08 03:35:28;;;;;;;14.85;5.88;;;5.50;91.90;;;;;;5115425;28;20024;-76
2022/12/08 03:38:10;;;;;;;9.80;5.63;;;5.50;91.90;;;;;;5115308;28;20025;-77
2022/12/08 03:40:36;;;;;;;10.23;4.75;;;5.50;91.90;;;;;;5114294;28;20050;-76
2022/12/08 03:43:02;;;;;;;13.57;5.47;;;5.50;91.90;;;;;;5114105;28;20052;-76
2022/12/08 03:45:28;;;;;;;9.93;5.13;;;5.50;92.10;;;;;;5115198;28;20020;-77
2022/12/08 03:47:54;;;;;;;8.00;4.55;;;5.40;92.00;;;;;;5115142;28;20027;-77
2022/12/08 03:50:20;;;;;;;9.60;5.32;;;5.40;92.00;;;;;;5113851;28;20047;-77
2022/12/08 03:52:46;;;;;;;7.38;4.35;;;5.50;92.00;;;;;;5115060;28;20020;-76
2022/12/08 03:55:11;;;;;;;7.18;4.00;;;5.50;92.10;;;;;;5114073;28;20564;-77
2022/12/08 03:57:37;;;;;;;7.45;3.80;;;5.50;92.00;;;;;;5114879;28;20012;-77
2022/12/08 04:00:05;;;;;;;8.13;3.63;;;5.50;91.90;;;;;;5113861;28;20459;-77
2022/12/08 04:02:31;;;;;;;7.95;3.15;;;5.50;91.80;;;;;;5114810;28;20017;-77
2022/12/08 04:04:56;;;;;;;7.07;3.42;;;5.50;91.80;;;;;;5114835;28;20077;-77
2022/12/08 04:07:22;;;;;;;9.15;3.00;;;5.50;91.80;;;;;;5113864;28;20031;-77
2022/12/08 04:09:47;;;;;;;5.90;3.17;;;5.50;91.70;;;;;;5113730;28;20027;-77
2022/12/08 04:12:13;;;;;;;6.20;3.22;;;5.50;91.80;;;;;;5113752;28;20082;-77
2022/12/08 04:14:39;;;;;;;5.85;3.17;;;5.50;91.80;;;;;;5114665;28;20025;-77
2022/12/08 04:17:04;;;;;;;6.40;3.40;;;5.60;91.80;;;;;;5114499;28;20047;-78
2022/12/08 04:19:31;;;;;;;5.57;3.17;;;5.60;91.80;;;;;;5113602;28;20020;-78
2022/12/08 04:21:56;;;;;;;7.45;3.45;;;5.60;91.70;;;;;;5114518;28;20028;-77
2022/12/08 04:24:22;;;;;;;7.00;3.67;;;5.60;91.80;;;;;;5096519;28;20024;-77
2022/12/08 04:26:49;;;;;;;7.13;3.15;;;5.60;91.70;;;;;;5113426;28;20038;-77
2022/12/08 04:29:15;;;;;;;7.45;3.40;;;5.70;91.80;;;;;;5113436;28;20115;-77
2022/12/08 04:31:41;;;;;;;7.03;3.65;;;5.70;91.80;;;;;;5114346;28;20043;-77
2022/12/08 04:34:08;;;;;;;7.70;3.78;;;5.70;91.80;;;;;;5114274;28;20052;-77
2022/12/08 04:36:34;;;;;;;9.27;3.95;;;5.70;91.90;;;;;;5114263;28;20047;-78
2022/12/08 04:38:59;;;;;;;9.85;4.28;;;5.70;91.80;;;;;;5114108;28;20036;-77
2022/12/08 04:41:25;;;;;;;6.65;4.13;;;5.80;91.80;;;;;;5113225;28;20039;-77
2022/12/08 04:43:50;;;;;;;7.78;3.78;;;5.80;91.70;;;;;;5113065;28;20056;-77
2022/12/08 04:46:16;;;;;;;9.50;4.40;;;5.80;91.70;;;;;;5113022;28;20016;-78
2022/12/08 04:48:42;;;;;;;7.43;4.05;;;5.80;91.70;;;;;;5113096;28;20032;-77
2022/12/08 04:51:14;;;;;;;7.85;4.20;;;5.80;91.80;;;;;;5114117;28;20044;-77
2022/12/08 04:53:40;;;;;;;8.50;4.10;;;5.80;91.70;;;;;;5113045;28;20095;-77
2022/12/08 04:56:13;;;;;;;6.80;3.58;;;5.80;91.70;;;;;;5113930;28;20032;-77
2022/12/08 04:58:39;;;;;;;7.30;3.60;;;5.80;91.70;;;;;;5113843;28;20098;-77
2022/12/08 05:01:04;;;;;;;10.27;4.45;;;5.80;91.60;;;;;;5095884;28;20028;-77
2022/12/08 05:03:30;;;;;;;7.70;3.60;;;5.80;91.70;;;;;;5112187;28;20028;-77
2022/12/08 05:05:58;;;;;;;9.45;4.18;;;5.80;92.10;;;;;;5112715;28;20058;-77
2022/12/08 05:08:24;;;;;;;8.75;4.10;;;5.90;92.10;;;;;;5112682;28;20059;-77
2022/12/08 05:10:49;;;;;;;9.75;4.35;;;5.90;91.70;;;;;;5095779;28;20471;-78
2022/12/08 05:13:15;;;;;;;6.95;3.33;;;5.90;91.60;;;;;;5112634;28;20050;-78
2022/12/08 05:15:41;;;;;;;6.88;3.50;;;5.90;91.60;;;;;;5112878;28;20058;-77
2022/12/08 05:18:06;;;;;;;6.40;3.72;;;5.90;91.50;;;;;;5112537;28;20040;-77
2022/12/08 05:20:32;;;;;;;8.15;3.47;;;5.80;91.40;;;;;;5113749;28;20039;-77
2022/12/08 05:22:58;;;;;;;8.98;3.65;;;5.90;91.50;;;;;;5112588;28;20429;-78
2022/12/08 05:25:24;;;;;;;10.82;4.07;;;5.90;91.60;;;;;;5112515;28;20036;-77
2022/12/08 05:27:49;;;;;;;8.40;3.72;;;5.90;91.50;;;;;;5113536;28;20040;-78
2022/12/08 05:30:15;;;;;;;7.50;3.35;;;5.90;91.40;;;;;;5112580;28;20032;-77
2022/12/08 05:32:40;;;;;;;9.07;3.78;;;5.80;91.40;;;;;;5113353;28;20028;-77
2022/12/08 05:35:06;;;;;;;8.18;4.10;;;5.80;91.50;;;;;;5095625;28;20032;-77
2022/12/08 05:37:32;;;;;;;7.13;3.13;;;5.80;91.50;;;;;;5113401;28;20040;-77
2022/12/08 05:39:58;;;;;;;7.55;3.17;;;5.80;91.40;;;;;;5112409;28;20038;-77
2022/12/08 05:42:23;;;;;;;8.95;3.65;;;5.80;91.40;;;;;;5113126;28;20048;-78
2022/12/08 05:44:49;;;;;;;7.55;3.55;;;5.80;91.40;;;;;;5113341;28;20084;-77
2022/12/08 05:47:14;;;;;;;12.43;4.68;;;5.90;91.40;;;;;;5113359;28;20032;-77
2022/12/08 05:49:40;;;;;;;8.02;4.07;;;5.90;91.40;;;;;;5112293;28;20463;-77
2022/12/08 05:52:06;;;;;;;10.73;5.10;;;5.80;91.40;;;;;;5112239;28;20045;-77
2022/12/08 05:54:31;;;;;;;9.32;4.82;;;5.80;91.50;;;;;;5112398;28;20035;-77
2022/12/08 05:56:57;;;;;;;12.93;5.75;;;5.80;91.60;;;;;;5113311;28;20032;-77
2022/12/08 05:59:22;;;;;;;10.48;5.03;;;5.80;91.60;;;;;;5113137;28;20051;-76
2022/12/08 06:01:48;;;;;;;12.75;5.03;;;5.80;91.60;;;;;;5113186;28;20024;-76
2022/12/08 06:04:13;;;;;;;5.47;3.13;;;5.80;91.60;;;;;;5112267;28;20027;-77
2022/12/08 06:06:39;;;;;;;10.25;5.25;;;5.70;91.40;;;;;;5095258;28;20050;-77
2022/12/08 06:09:05;;;;;;;10.50;4.55;;;5.70;91.50;;;;;;5113086;28;20048;-77
2022/12/08 06:11:31;;;;;;;7.68;4.00;;;5.70;91.50;;;;;;5112318;28;20044;-76
2022/12/08 06:13:58;;;;;;;10.20;4.05;;;5.60;91.50;;;;;;5114512;28;20028;-76
2022/12/08 06:16:25;;;;;;;14.40;6.45;;;5.60;91.40;;;;;;5116105;28;20028;-77
2022/12/08 06:18:52;;;;;;;15.88;7.15;;;5.60;91.90;;;;;;5115888;28;20032;-77
2022/12/08 06:21:18;;;;;;;8.48;4.75;;;5.60;91.30;;;;;;5116049;28;20028;-76
2022/12/08 06:23:48;;;;;;;8.50;4.47;;;5.50;91.30;;;;;;5116795;28;20020;-77
2022/12/08 06:26:14;;;;;;;11.75;5.25;;;5.50;91.40;;;;;;5116826;28;20030;-77
2022/12/08 06:28:42;;;;;;;8.25;3.35;;;5.50;91.40;;;;;;5116841;28;20032;-77
2022/12/08 06:31:24;;;;;;;9.35;4.43;;;5.50;91.40;;;;;;5115869;28;20024;-77
2022/12/08 06:33:50;;;;;;;8.68;4.65;;;5.50;91.40;;;;;;5116658;28;20024;-77
2022/12/08 06:36:19;;;;;;;10.80;5.47;;;5.50;91.80;;;;;;5116461;28;20028;-77
2022/12/08 06:38:45;;;;;;;9.38;4.43;;;5.40;91.50;;;;;;5116469;28;20027;-77
2022/12/08 06:41:12;;;;;;;7.43;3.92;;;5.40;91.60;;;;;;5116470;28;20016;-77
2022/12/08 06:43:38;;;;;;;7.13;4.22;;;5.40;91.50;;;;;;5115333;28;20040;-77
2022/12/08 06:46:05;;;;;;;7.80;3.33;;;5.30;91.60;;;;;;5115472;28;20020;-77
2022/12/08 06:48:31;;;;;;;8.77;4.47;;;5.30;91.70;;;;;;5115320;28;20028;-78
2022/12/08 06:50:57;;;;;;;7.40;4.00;;;5.30;91.70;;;;;;5098403;28;20032;-77
2022/12/08 06:53:22;;;;;;;6.88;4.50;;;5.30;91.80;;;;;;5116250;28;20032;-77
2022/12/08 06:55:52;;;;;;;5.57;2.75;;;5.30;91.80;;;;;;5115311;28;20053;-77
2022/12/08 06:58:18;;;;;;;7.72;3.58;;;5.30;91.70;;;;;;5115183;28;20070;-78
2022/12/08 07:00:44;;;;;;;6.00;3.50;;;5.30;91.70;;;;;;5116093;28;20028;-77
2022/12/08 07:03:11;;;;;;;7.50;3.53;;;5.30;91.80;;;;;;5098019;28;20087;-77
2022/12/08 07:05:37;;;;;;;6.97;3.53;;;5.30;91.70;;;;;;5116087;28;20020;-77
2022/12/08 07:08:04;;;;;;;6.35;3.47;;;5.30;91.70;;;;;;5115876;28;20039;-77
2022/12/08 07:10:29;;;;;;;5.72;3.65;;;5.20;91.70;;;;;;5114932;28;20028;-77
2022/12/08 07:12:55;;;;;;;5.20;2.90;;;5.30;91.70;;;;;;5115891;28;20047;-77
2022/12/08 07:15:21;;;;;;;4.32;2.90;;;5.30;91.70;;;;;;5115831;28;20024;-77
2022/12/08 07:17:47;;;;;;;6.15;2.80;;;5.30;91.60;;;;;;5115688;28;20050;-77
2022/12/08 07:20:13;;;;;;;5.60;2.80;;;5.30;91.60;;;;;;5115713;28;20016;-78
2022/12/08 07:22:38;;;;;;;9.43;5.07;;;5.40;91.60;;;;;;5114749;28;20046;-77
2022/12/08 07:25:05;;;;;;;7.15;3.95;;;5.40;91.60;;;;;;5113976;28;20040;-77
2022/12/08 07:27:30;;;;;;;6.93;4.68;;;5.40;91.50;;;;;;5115517;28;20027;-77
2022/12/08 07:29:56;;;;;;;5.68;3.58;;;5.40;91.50;;;;;;5114634;28;20024;-77
2022/12/08 07:32:22;;;;;;;6.95;3.45;;;5.40;91.50;;;;;;5114475;28;20067;-77
2022/12/08 07:34:47;;;;;;;7.38;3.17;;;5.40;91.60;;;;;;5115426;28;20024;-77
2022/12/08 07:37:13;;;;;;;5.95;3.30;;;5.30;91.60;;;;;;5115342;28;20036;-77
2022/12/08 07:39:38;;;;;;;4.70;2.60;;;5.30;91.60;;;;;;5115331;28;20054;-77
2022/12/08 07:42:04;;;;;;;31.38;18.98;;;5.30;91.70;;;;;;5114135;28;20016;-77
2022/12/08 07:44:30;;;;;;;4.40;2.72;;;5.40;91.70;;;;;;5097400;28;20102;-77
2022/12/08 07:46:55;;;;;;;6.43;3.05;;;5.30;91.70;;;;;;5114250;28;20035;-76
2022/12/08 07:49:21;;;;;;;5.22;3.05;;;5.40;91.70;;;;;;5115299;28;20495;-76
2022/12/08 07:51:47;;;;;;;5.35;3.72;;;5.40;91.70;;;;;;5114065;28;20095;-77
2022/12/08 07:54:12;;;;;;;3.88;2.60;;;5.40;91.70;;;;;;5115074;28;20111;-77
2022/12/08 07:56:38;;;;;;;4.82;2.70;;;5.40;91.80;;;;;;5114056;28;20055;-77
2022/12/08 07:59:04;;;;;;;4.50;2.97;;;5.40;91.70;;;;;;5114080;28;20032;-77
2022/12/08 08:01:32;;;;;;;4.25;2.53;;;5.50;91.80;;;;;;5114908;28;20024;-76
2022/12/08 08:04:00;;;;;;;7.20;4.07;;;5.40;91.80;;;;;;5114871;28;20055;-77
2022/12/08 08:06:26;;;;;;;4.05;2.58;;;5.40;91.80;;;;;;5114811;28;20084;-77
2022/12/08 08:08:52;;;;;;;5.10;3.28;;;5.50;91.80;;;;;;5114710;28;20032;-77
2022/12/08 08:11:18;;;;;;;3.95;2.25;;;5.50;91.80;;;;;;5113768;28;20088;-77
2022/12/08 08:13:43;;;;;;;6.45;3.42;;;5.50;91.80;;;;;;5114671;28;20032;-77
2022/12/08 08:16:10;;;;;;;8.90;2.80;;;5.50;92.20;;;;;;5114628;28;20096;-77
2022/12/08 08:18:36;;;;;;;5.95;2.30;;;5.50;91.70;;;;;;5113486;28;20032;-77
2022/12/08 08:21:02;;;;;;;5.13;2.60;;;5.50;91.80;;;;;;5114564;28;20103;-77
2022/12/08 08:23:28;;;;;;;3.95;2.28;;;5.60;91.80;;;;;;5113571;28;20024;-77
2022/12/08 08:25:57;;;;;;;5.90;2.40;;;5.60;91.80;;;;;;5113474;28;20020;-77
2022/12/08 08:28:22;;;;;;;3.20;2.10;;;5.60;91.80;;;;;;5113383;28;20020;-77
2022/12/08 08:30:48;;;;;;;4.97;2.40;;;5.60;91.70;;;;;;5114364;28;20039;-76
2022/12/08 08:33:14;;;;;;;4.65;2.50;;;5.60;91.70;;;;;;5114347;28;20020;-76
2022/12/08 08:35:41;;;;;;;5.15;2.55;;;5.60;91.70;;;;;;5113343;28;20490;-76
2022/12/08 08:38:06;;;;;;;4.05;2.53;;;5.70;91.70;;;;;;5113188;28;20496;-77
2022/12/08 08:40:32;;;;;;;4.97;2.53;;;5.70;91.70;;;;;;5114204;28;20024;-77
2022/12/08 08:43:00;;;;;;;4.13;2.72;;;5.70;91.70;;;;;;5113960;28;20049;-77
2022/12/08 08:45:26;;;;;;;6.25;2.85;;;5.60;91.60;;;;;;5113216;28;20024;-77
2022/12/08 08:47:51;;;;;;;15.95;6.45;;;5.60;91.70;;;;;;5096242;28;20050;-77
2022/12/08 08:50:17;;;;;;;6.28;3.30;;;5.60;91.70;;;;;;5112979;28;20089;-77
2022/12/08 08:52:43;;;;;;;7.72;3.20;;;5.60;91.70;;;;;;5114013;28;20024;-77
2022/12/08 08:55:08;;;;;;;3.63;2.28;;;5.60;91.70;;;;;;5113969;28;20028;-76
2022/12/08 08:57:34;;;;;;;3.35;1.90;;;5.60;91.60;;;;;;5113835;28;20036;-76
2022/12/08 09:00:00;;;;;;;4.28;1.95;;;5.60;91.40;;;;;;5113875;28;20028;-76
2022/12/08 09:02:25;;;;;;;2.45;1.50;;;5.50;91.30;;;;;;5112885;28;20035;-78
2022/12/08 09:04:51;;;;;;;3.50;1.45;;;5.50;91.20;;;;;;5113793;28;20020;-76
2022/12/08 09:07:17;;;;;;;3.30;1.50;;;5.50;91.00;;;;;;5112901;28;20028;-76
2022/12/08 09:09:43;;;;;;;3.55;2.38;;;5.50;90.90;;;;;;5113671;28;20024;-77
2022/12/08 09:12:09;;;;;;;4.40;1.50;;;5.40;91.00;;;;;;5113785;28;20024;-76
2022/12/08 09:14:35;;;;;;;4.30;1.90;;;5.40;91.00;;;;;;5112803;28;20032;-77
2022/12/08 09:17:01;;;;;;;3.30;1.40;;;5.40;91.10;;;;;;5112797;28;20032;-77
2022/12/08 09:19:26;;;;;;;2.83;1.50;;;5.50;91.20;;;;;;5113531;28;20032;-77
2022/12/08 09:21:52;;;;;;;3.28;1.90;;;5.50;91.10;;;;;;5113584;28;20066;-76
2022/12/08 09:24:17;;;;;;;6.53;1.88;;;5.50;91.10;;;;;;5113544;28;20020;-77
2022/12/08 09:26:44;;;;;;;3.20;1.42;;;5.50;91.10;;;;;;5095721;28;20077;-77
2022/12/08 09:29:10;;;;;;;3.13;1.90;;;5.50;91.10;;;;;;5113534;28;20024;-77
2022/12/08 09:31:36;;;;;;;4.60;1.80;;;5.50;91.10;;;;;;5112478;28;20036;-77
2022/12/08 09:34:03;;;;;;;2.97;1.50;;;5.50;91.20;;;;;;5113508;28;20024;-77
2022/12/08 09:36:29;;;;;;;3.17;1.80;;;5.50;91.10;;;;;;5113417;28;20030;-77
2022/12/08 09:38:55;;;;;;;3.58;1.65;;;5.50;91.10;;;;;;5112334;28;20028;-77
2022/12/08 09:41:34;;;;;;;2.13;1.30;;;5.40;91.00;;;;;;5112490;28;20360;-76
2022/12/08 09:44:43;;;;;;;7.00;3.92;;;5.40;90.90;;;;;;5095277;28;20513;-76
2022/12/08 09:47:29;;;;;;;3.10;1.83;;;5.40;91.30;;;;;;5098887;28;20111;-77
2022/12/08 09:50:13;;;;;;;1.77;1.10;;;5.40;90.90;;;;;;5116518;28;20016;-77
2022/12/08 09:53:12;;;;;;;1.65;1.08;;;5.40;91.00;;;;;;5117433;28;20020;-77
2022/12/08 09:56:00;;;;;;;44.25;24.60;;;5.40;91.00;;;;;;5116406;28;20045;-77
2022/12/08 09:58:41;;;;;;;88.40;45.67;;;5.40;91.00;;;;;;5117265;28;20035;-77
2022/12/08 10:01:10;;;;;;;17.63;9.63;;;5.50;91.00;;;;;;5117244;28;20035;-77
2022/12/08 10:03:36;;;;;;;4.10;1.83;;;5.50;91.00;;;;;;5116204;28;20024;-76
2022/12/08 10:06:21;;;;;;;12.90;6.28;;;5.50;91.00;;;;;;5117204;28;20024;-77
2022/12/08 10:09:08;;;;;;;13.82;6.57;;;5.50;90.90;;;;;;5116121;28;20031;-77
2022/12/08 10:11:44;;;;;;;3.95;2.42;;;5.60;90.90;;;;;;5116163;28;20020;-76
2022/12/08 10:14:22;;;;;;;1.95;0.88;;;5.50;90.80;;;;;;5117192;28;20032;-77
2022/12/08 10:16:50;;;;;;;1.30;0.57;;;5.50;91.10;;;;;;5117160;28;20027;-78
2022/12/08 10:19:22;;;;;;;1.20;0.60;;;5.50;90.90;;;;;;5115818;28;20050;-78
2022/12/08 10:21:48;;;;;;;0.88;0.60;;;5.40;91.00;;;;;;5115903;28;20398;-77
2022/12/08 10:24:39;;;;;;;1.38;0.80;;;5.40;91.00;;;;;;5116817;28;20020;-78
2022/12/08 10:27:10;;;;;;;2.17;0.80;;;5.50;91.10;;;;;;5116860;28;20024;-77
2022/12/08 10:29:36;;;;;;;1.73;0.50;;;5.50;91.10;;;;;;5116757;28;20028;-78
2022/12/08 10:32:15;;;;;;;1.38;0.73;;;5.50;91.10;;;;;;5115666;28;20040;-79
2022/12/08 10:34:58;;;;;;;2.20;1.50;;;5.50;91.10;;;;;;5116706;28;20379;-77
2022/12/08 10:37:23;;;;;;;1.45;0.80;;;5.60;91.10;;;;;;5115535;28;20024;-80
2022/12/08 10:40:18;;;;;;;7.35;3.53;;;5.60;91.10;;;;;;5115631;28;20046;-79
2022/12/08 10:42:50;;;;;;;6.97;2.75;;;5.60;91.10;;;;;;5114497;28;20135;-78
2022/12/08 10:45:15;;;;;;;3.70;2.10;;;5.60;91.20;;;;;;5116491;28;20027;-78
2022/12/08 10:47:43;;;;;;;4.35;2.28;;;5.60;91.10;;;;;;5116394;28;20083;-77
2022/12/08 10:50:17;;;;;;;17.80;8.57;;;5.60;91.00;;;;;;5116362;28;20575;-77
2022/12/08 10:52:44;;;;;;;4.78;2.90;;;5.60;91.20;;;;;;5116482;28;20044;-77
2022/12/08 10:55:18;;;;;;;3.95;2.05;;;5.60;91.20;;;;;;5116258;28;20024;-77
2022/12/08 10:57:44;;;;;;;6.95;4.15;;;5.60;91.30;;;;;;5116095;28;20028;-77
2022/12/08 11:00:16;;;;;;;5.25;3.08;;;5.60;91.30;;;;;;5115041;28;20023;-78
2022/12/08 11:02:53;;;;;;;5.03;2.47;;;5.60;91.30;;;;;;5116150;28;20467;-77
2022/12/08 11:05:20;;;;;;;4.95;2.90;;;5.50;91.00;;;;;;5116052;28;20331;-77
2022/12/08 11:07:51;;;;;;;4.68;2.72;;;5.50;91.00;;;;;;5115906;28;20059;-77
2022/12/08 11:10:18;;;;;;;7.38;3.67;;;5.50;91.30;;;;;;5115970;28;20486;-77
2022/12/08 11:12:44;;;;;;;5.03;3.53;;;5.60;91.30;;;;;;5114967;28;20028;-77
2022/12/08 11:15:16;;;;;;;6.68;4.30;;;5.60;91.40;;;;;;5115858;28;20079;-77
2022/12/08 11:17:44;;;;;;;25.98;13.77;;;5.60;91.40;;;;;;5114862;28;20029;-77
2022/12/08 11:20:10;;;;;;;11.93;7.82;;;5.60;91.40;;;;;;5115793;28;20020;-77
2022/12/08 11:22:40;;;;;;;7.90;4.80;;;5.60;91.50;;;;;;5114707;28;20028;-77
2022/12/08 11:25:24;;;;;;;6.95;3.72;;;5.70;91.40;;;;;;5115650;28;20027;-77
2022/12/08 11:27:53;;;;;;;6.82;3.28;;;5.70;91.40;;;;;;5115663;28;20111;-77
2022/12/08 11:30:21;;;;;;;11.07;5.25;;;5.80;91.40;;;;;;5114544;28;20390;-77
2022/12/08 11:32:52;;;;;;;9.88;3.85;;;5.80;91.40;;;;;;5114538;28;20088;-77
2022/12/08 11:35:29;;;;;;;4.88;3.38;;;5.80;91.70;;;;;;5115365;28;20062;-77
2022/12/08 11:38:16;;;;;;;8.18;4.15;;;5.80;91.40;;;;;;5114329;28;20032;-77
2022/12/08 11:40:43;;;;;;;7.13;2.75;;;5.80;91.30;;;;;;5113555;28;20056;-77
2022/12/08 11:43:29;;;;;;;8.30;4.10;;;5.80;91.30;;;;;;5115082;28;20052;-77
2022/12/08 11:46:00;;;;;;;3.88;2.38;;;5.80;91.20;;;;;;5114508;28;20017;-77
2022/12/08 11:48:47;;;;;;;4.40;2.65;;;5.80;91.20;;;;;;5115215;28;20039;-77
2022/12/08 11:51:21;;;;;;;5.00;2.40;;;5.80;91.20;;;;;;5115175;28;20024;-77
2022/12/08 11:54:22;;;;;;;5.35;3.10;;;5.80;91.20;;;;;;5115163;28;20024;-77
2022/12/08 11:56:56;;;;;;;4.75;2.58;;;5.90;91.20;;;;;;5072437;28;20052;-77
2022/12/08 11:59:33;;;;;;;5.57;2.67;;;5.90;91.20;;;;;;5114002;28;20074;-77
2022/12/08 12:02:01;;;;;;;4.25;2.63;;;5.80;91.10;;;;;;5113960;28;20102;-77
2022/12/08 12:04:51;;;;;;;4.68;2.65;;;5.90;91.30;;;;;;5113957;28;20030;-77
2022/12/08 12:08:07;;;;;;;5.03;2.80;;;5.90;91.20;;;;;;5113916;28;20028;-77
2022/12/08 12:10:51;;;;;;;6.53;2.80;;;5.90;91.20;;;;;;5069897;28;20036;-77
2022/12/08 12:13:43;;;;;;;5.82;2.88;;;5.90;91.10;;;;;;5114523;28;20028;-76
2022/12/08 12:16:47;;;;;;;11.05;3.05;;;5.90;91.10;;;;;;5112970;28;20085;-77
2022/12/08 12:19:16;;;;;;;4.65;2.70;;;5.90;91.10;;;;;;5114568;28;20039;-77
2022/12/08 12:21:47;;;;;;;5.82;3.03;;;5.90;91.20;;;;;;5113564;28;20045;-77
2022/12/08 12:24:15;;;;;;;4.03;2.20;;;5.90;91.30;;;;;;5113705;28;20020;-77
2022/12/08 12:26:59;;;;;;;4.72;2.60;;;5.90;90.90;;;;;;5114516;28;20044;-77
2022/12/08 12:29:34;;;;;;;6.13;2.20;;;5.90;90.90;;;;;;5114482;28;20479;-77
2022/12/08 12:32:08;;;;;;;3.97;2.30;;;5.90;90.90;;;;;;5114417;28;20107;-77
2022/12/08 12:34:48;;;;;;;5.78;2.05;;;5.90;90.80;;;;;;5114411;28;20102;-77
2022/12/08 12:37:17;;;;;;;3.53;1.90;;;5.90;90.70;;;;;;5114272;28;20031;-77
2022/12/08 12:39:57;;;;;;;3.28;1.88;;;5.90;90.70;;;;;;5114272;28;20031;-77
2022/12/08 12:42:35;;;;;;;2.88;1.45;;;5.90;90.50;;;;;;5112909;28;20028;-77
2022/12/08 12:45:16;;;;;;;3.40;1.90;;;5.90;90.20;;;;;;5114086;28;20028;-77
2022/12/08 12:47:51;;;;;;;2.38;1.58;;;5.90;90.30;;;;;;5113235;28;20036;-77
2022/12/08 12:50:31;;;;;;;2.15;1.58;;;5.90;90.20;;;;;;5114051;28;20024;-77
2022/12/08 12:53:17;;;;;;;3.03;1.95;;;5.90;90.10;;;;;;5114022;28;20048;-77
2022/12/08 12:56:00;;;;;;;2.88;1.75;;;5.90;90.30;;;;;;5114174;28;20080;-76
2022/12/08 12:58:28;;;;;;;3.35;1.85;;;5.90;90.20;;;;;;5113173;28;20066;-78
2022/12/08 13:01:20;;;;;;;3.10;1.88;;;5.90;90.40;;;;;;5113921;28;20048;-77
2022/12/08 13:03:50;;;;;;;3.55;1.73;;;5.90;90.30;;;;;;5075783;28;20055;-78
2022/12/08 13:06:35;;;;;;;4.38;2.30;;;6.00;90.40;;;;;;5112982;28;20016;-77
2022/12/08 13:09:01;;;;;;;3.80;2.38;;;6.00;90.40;;;;;;5113906;28;20028;-79
2022/12/08 13:11:27;;;;;;;2.63;1.90;;;6.00;90.40;;;;;;5113744;28;20092;-78
2022/12/08 13:14:02;;;;;;;5.93;3.10;;;6.00;90.80;;;;;;5112888;28;20032;-77
2022/12/08 13:16:33;;;;;;;5.13;3.10;;;6.10;90.30;;;;;;5113682;28;20031;-78